sensor_id;sensor_type;location;lat;lon;timestamp;pressure;altitude;pressure_sealevel;temperature;humidity
29045;BME280;16133;49.486;12.176;2022-11-23T00:02:23;96055.41;;;3.24;100.00
29045;BME280;16133;49.486;12.176;2022-11-23T00:04:49;96056.41;;;3.23;100.00
29045;BME280;16133;49.486;12.176;2022-11-23T00:07:14;96050.34;;;3.23;100.00
29045;BME280;16133;49.486;12.176;2022-11-23T00:09:40;96055.41;;;3.24;100.00
29045;BME280;16133;49.486;12.176;2022-11-23T00:12:05;96049.22;;;3.17;100.00
29045;BME280;16133;49.486;12.176;2022-11-23T00:14:31;96054.75;;;3.22;100.00
29045;BME280;16133;49.486;12.176;2022-11-23T00:16:56;96052.66;;;3.18;100.00
29045;BME280;16133;49.486;12.176;2022-11-23T00:19:22;96043.16;;;3.17;100.00
29045;BME280;16133;49.486;12.176;2022-11-23T00:21:47;96053.44;;;3.18;100.00
29045;BME280;16133;49.486;12.176;2022-11-23T00:24:12;96055.28;;;3.18;100.00
29045;BME280;16133;49.486;12.176;2022-11-23T00:26:38;96054.13;;;3.20;100.00
29045;BME280;16133;49.486;12.176;2022-11-23T00:29:03;96054.28;;;3.19;100.00
29045;BME280;16133;49.486;12.176;2022-11-23T00:31:29;96053.28;;;3.20;100.00
29045;BME280;16133;49.486;12.176;2022-11-23T00:33:56;96052.81;;;3.16;100.00
29045;BME280;16133;49.486;12.176;2022-11-23T00:36:23;96055.44;;;3.16;100.00
29045;BME280;16133;49.486;12.176;2022-11-23T00:38:50;96049.38;;;3.16;100.00
29045;BME280;16133;49.486;12.176;2022-11-23T00:41:21;96051.00;;;3.17;100.00
29045;BME280;16133;49.486;12.176;2022-11-23T00:43:47;96049.53;;;3.14;100.00
29045;BME280;16133;49.486;12.176;2022-11-23T00:48:40;96045.94;;;3.15;100.00
29045;BME280;16133;49.486;12.176;2022-11-23T00:51:08;96046.75;;;3.16;100.00
29045;BME280;16133;49.486;12.176;2022-11-23T00:53:34;96046.75;;;3.16;100.00
29045;BME280;16133;49.486;12.176;2022-11-23T00:56:00;96045.94;;;3.15;100.00
29045;BME280;16133;49.486;12.176;2022-11-23T00:58:26;96044.78;;;3.18;100.00
29045;BME280;16133;49.486;12.176;2022-11-23T01:01:00;96061.31;;;3.18;100.00
29045;BME280;16133;49.486;12.176;2022-11-23T01:03:25;96056.91;;;3.19;100.00
29045;BME280;16133;49.486;12.176;2022-11-23T01:05:50;96049.53;;;3.14;100.00
29045;BME280;16133;49.486;12.176;2022-11-23T01:08:16;96047.72;;;3.15;100.00
29045;BME280;16133;49.486;12.176;2022-11-23T01:10:41;96056.41;;;3.15;100.00
29045;BME280;16133;49.486;12.176;2022-11-23T01:13:06;96058.88;;;3.17;100.00
29045;BME280;16133;49.486;12.176;2022-11-23T01:15:32;96056.41;;;3.15;100.00
29045;BME280;16133;49.486;12.176;2022-11-23T01:17:57;96060.69;;;3.16;100.00
29045;BME280;16133;49.486;12.176;2022-11-23T01:20:22;96054.63;;;3.16;100.00
29045;BME280;16133;49.486;12.176;2022-11-23T01:22:50;96060.00;;;3.14;100.00
29045;BME280;16133;49.486;12.176;2022-11-23T01:25:16;96055.59;;;3.15;100.00
29045;BME280;16133;49.486;12.176;2022-11-23T01:27:41;96058.06;;;3.16;100.00
29045;BME280;16133;49.486;12.176;2022-11-23T01:30:07;96056.41;;;3.15;100.00
29045;BME280;16133;49.486;12.176;2022-11-23T01:32:33;96047.91;;;3.13;100.00
29045;BME280;16133;49.486;12.176;2022-11-23T01:34:58;96052.31;;;3.13;100.00
29045;BME280;16133;49.486;12.176;2022-11-23T01:37:23;96045.94;;;3.15;100.00
29045;BME280;16133;49.486;12.176;2022-11-23T01:39:49;96052.16;;;3.14;100.00
29045;BME280;16133;49.486;12.176;2022-11-23T01:42:14;96048.53;;;3.15;100.00
29045;BME280;16133;49.486;12.176;2022-11-23T01:44:41;96047.72;;;3.15;100.00
29045;BME280;16133;49.486;12.176;2022-11-23T01:47:08;96054.47;;;3.17;100.00
29045;BME280;16133;49.486;12.176;2022-11-23T01:49:44;96058.06;;;3.16;100.00
29045;BME280;16133;49.486;12.176;2022-11-23T01:52:14;96061.66;;;3.15;100.00
29045;BME280;16133;49.486;12.176;2022-11-23T01:54:49;96062.63;;;3.14;100.00
29045;BME280;16133;49.486;12.176;2022-11-23T01:57:22;96060.00;;;3.14;100.00
29045;BME280;16133;49.486;12.176;2022-11-23T01:59:49;96070.50;;;3.14;100.00
29045;BME280;16133;49.486;12.176;2022-11-23T02:02:16;96066.88;;;3.15;100.00
29045;BME280;16133;49.486;12.176;2022-11-23T02:04:44;96068.88;;;3.13;100.00
29045;BME280;16133;49.486;12.176;2022-11-23T02:07:10;96078.34;;;3.14;100.00
29045;BME280;16133;49.486;12.176;2022-11-23T02:09:36;96080.00;;;3.15;100.00
29045;BME280;16133;49.486;12.176;2022-11-23T02:12:02;96079.34;;;3.13;100.00
29045;BME280;16133;49.486;12.176;2022-11-23T02:14:30;96074.13;;;3.13;100.00
29045;BME280;16133;49.486;12.176;2022-11-23T02:17:00;96077.72;;;3.12;100.00
29045;BME280;16133;49.486;12.176;2022-11-23T02:22:05;96095.09;;;3.13;100.00
29045;BME280;16133;49.486;12.176;2022-11-23T02:24:38;96087.56;;;3.10;100.00
29045;BME280;16133;49.486;12.176;2022-11-23T02:27:06;96092.94;;;3.09;100.00
29045;BME280;16133;49.486;12.176;2022-11-23T02:29:32;96087.72;;;3.09;100.00
29045;BME280;16133;49.486;12.176;2022-11-23T02:31:58;96090.19;;;3.10;100.00
29045;BME280;16133;49.486;12.176;2022-11-23T02:34:24;96086.06;;;3.08;100.00
29045;BME280;16133;49.486;12.176;2022-11-23T02:36:54;96083.28;;;3.09;100.00
29045;BME280;16133;49.486;12.176;2022-11-23T02:41:55;96085.72;;;3.11;100.00
29045;BME280;16133;49.486;12.176;2022-11-23T02:46:55;96085.72;;;3.11;100.00
29045;BME280;16133;49.486;12.176;2022-11-23T02:49:21;96087.38;;;3.12;100.00
29045;BME280;16133;49.486;12.176;2022-11-23T02:51:46;96092.63;;;3.12;100.00
29045;BME280;16133;49.486;12.176;2022-11-23T02:54:12;96093.44;;;3.12;100.00
29045;BME280;16133;49.486;12.176;2022-11-23T02:56:37;96101.28;;;3.12;100.00
29045;BME280;16133;49.486;12.176;2022-11-23T02:59:02;96102.28;;;3.11;100.00
29045;BME280;16133;49.486;12.176;2022-11-23T03:01:28;96103.28;;;3.10;100.00
29045;BME280;16133;49.486;12.176;2022-11-23T03:03:53;96105.72;;;3.12;100.00
29045;BME280;16133;49.486;12.176;2022-11-23T03:06:19;96100.97;;;3.07;100.00
29045;BME280;16133;49.486;12.176;2022-11-23T03:08:44;96105.09;;;3.10;100.00
29045;BME280;16133;49.486;12.176;2022-11-23T03:11:09;96097.38;;;3.00;100.00
29045;BME280;16133;49.486;12.176;2022-11-23T03:13:35;96111.44;;;3.07;100.00
29045;BME280;16133;49.486;12.176;2022-11-23T03:16:00;96106.22;;;3.07;100.00
29045;BME280;16133;49.486;12.176;2022-11-23T03:18:26;96105.38;;;3.07;100.00
29045;BME280;16133;49.486;12.176;2022-11-23T03:20:51;96098.34;;;3.07;100.00
29045;BME280;16133;49.486;12.176;2022-11-23T03:23:16;96096.41;;;3.09;100.00
29045;BME280;16133;49.486;12.176;2022-11-23T03:25:42;96104.41;;;3.08;100.00
29045;BME280;16133;49.486;12.176;2022-11-23T03:28:07;96104.09;;;3.03;100.00
29045;BME280;16133;49.486;12.176;2022-11-23T03:30:33;96105.09;;;3.10;100.00
29045;BME280;16133;49.486;12.176;2022-11-23T03:32:58;96108.69;;;3.09;100.00
29045;BME280;16133;49.486;12.176;2022-11-23T03:35:23;96098.03;;;3.10;100.00
29045;BME280;16133;49.486;12.176;2022-11-23T03:37:49;96094.59;;;3.10;100.00
29045;BME280;16133;49.486;12.176;2022-11-23T03:40:14;96094.41;;;3.11;100.00
29045;BME280;16133;49.486;12.176;2022-11-23T03:42:40;96101.28;;;3.12;100.00
29045;BME280;16133;49.486;12.176;2022-11-23T03:45:07;96098.69;;;3.12;100.00
29045;BME280;16133;49.486;12.176;2022-11-23T03:47:32;96099.50;;;3.13;100.00
29045;BME280;16133;49.486;12.176;2022-11-23T03:49:58;96100.31;;;3.13;100.00
29045;BME280;16133;49.486;12.176;2022-11-23T03:52:23;96096.69;;;3.14;100.00
29045;BME280;16133;49.486;12.176;2022-11-23T03:54:48;96100.31;;;3.13;100.00
29045;BME280;16133;49.486;12.176;2022-11-23T03:57:14;96097.69;;;3.13;100.00
29045;BME280;16133;49.486;12.176;2022-11-23T03:59:39;96101.16;;;3.14;100.00
29045;BME280;16133;49.486;12.176;2022-11-23T04:02:05;96100.13;;;3.15;100.00
29045;BME280;16133;49.486;12.176;2022-11-23T04:04:32;96094.75;;;3.16;100.00
29045;BME280;16133;49.486;12.176;2022-11-23T04:06:57;96087.03;;;3.15;100.00
29045;BME280;16133;49.486;12.176;2022-11-23T04:09:23;96094.06;;;3.14;100.00
29045;BME280;16133;49.486;12.176;2022-11-23T04:11:49;96095.09;;;3.13;100.00
29045;BME280;16133;49.486;12.176;2022-11-23T04:14:14;96096.69;;;3.14;100.00
29045;BME280;16133;49.486;12.176;2022-11-23T04:16:39;96092.13;;;3.16;100.00
29045;BME280;16133;49.486;12.176;2022-11-23T04:19:05;96090.47;;;3.15;100.00
29045;BME280;16133;49.486;12.176;2022-11-23T04:21:30;96096.06;;;3.12;100.00
29045;BME280;16133;49.486;12.176;2022-11-23T04:23:55;96091.63;;;3.13;100.00
29045;BME280;16133;49.486;12.176;2022-11-23T04:26:21;96085.56;;;3.12;100.00
29045;BME280;16133;49.486;12.176;2022-11-23T04:28:46;96088.34;;;3.11;100.00
29045;BME280;16133;49.486;12.176;2022-11-23T04:31:11;96093.59;;;3.11;100.00
29045;BME280;16133;49.486;12.176;2022-11-23T04:33:37;96098.69;;;3.12;100.00
29045;BME280;16133;49.486;12.176;2022-11-23T04:36:02;96093.59;;;3.11;100.00
29045;BME280;16133;49.486;12.176;2022-11-23T04:38:28;96092.63;;;3.12;100.00
29045;BME280;16133;49.486;12.176;2022-11-23T04:40:53;96097.69;;;3.13;100.00
29045;BME280;16133;49.486;12.176;2022-11-23T04:43:19;96097.69;;;3.13;100.00
29045;BME280;16133;49.486;12.176;2022-11-23T04:45:44;96099.66;;;3.11;100.00
29045;BME280;16133;49.486;12.176;2022-11-23T04:48:10;96089.03;;;3.13;100.00
29045;BME280;16133;49.486;12.176;2022-11-23T04:50:35;96097.84;;;3.12;100.00
29045;BME280;16133;49.486;12.176;2022-11-23T04:53:03;96106.22;;;3.07;100.00
29045;BME280;16133;49.486;12.176;2022-11-23T04:55:29;96099.00;;;3.09;100.00
29045;BME280;16133;49.486;12.176;2022-11-23T04:57:54;96095.56;;;3.09;100.00
29045;BME280;16133;49.486;12.176;2022-11-23T05:00:20;96092.13;;;3.08;100.00
29045;BME280;16133;49.486;12.176;2022-11-23T05:02:45;96086.88;;;3.08;100.00
29045;BME280;16133;49.486;12.176;2022-11-23T05:05:10;96091.16;;;3.09;100.00
29045;BME280;16133;49.486;12.176;2022-11-23T05:07:36;96091.31;;;3.08;100.00
29045;BME280;16133;49.486;12.176;2022-11-23T05:10:02;96097.53;;;3.07;100.00
29045;BME280;16133;49.486;12.176;2022-11-23T05:12:27;96105.22;;;3.08;100.00
29045;BME280;16133;49.486;12.176;2022-11-23T05:14:53;96109.00;;;3.06;100.00
29045;BME280;16133;49.486;12.176;2022-11-23T05:17:18;96109.16;;;3.04;100.00
29045;BME280;16133;49.486;12.176;2022-11-23T05:19:44;96112.59;;;3.05;100.00
29045;BME280;16133;49.486;12.176;2022-11-23T05:22:09;96110.63;;;3.07;100.00
29045;BME280;16133;49.486;12.176;2022-11-23T05:24:35;96111.16;;;3.02;100.00
29045;BME280;16133;49.486;12.176;2022-11-23T05:27:00;96101.63;;;3.01;100.00
29045;BME280;16133;49.486;12.176;2022-11-23T05:29:25;96113.75;;;3.02;100.00
29045;BME280;16133;49.486;12.176;2022-11-23T05:31:51;96111.16;;;3.02;100.00
29045;BME280;16133;49.486;12.176;2022-11-23T05:34:16;96110.13;;;3.03;100.00
29045;BME280;16133;49.486;12.176;2022-11-23T05:36:42;96110.97;;;3.04;100.00
29045;BME280;16133;49.486;12.176;2022-11-23T05:39:07;96115.38;;;3.03;100.00
29045;BME280;16133;49.486;12.176;2022-11-23T05:41:32;96106.53;;;3.04;100.00
29045;BME280;16133;49.486;12.176;2022-11-23T05:43:58;96109.16;;;3.04;100.00
29045;BME280;16133;49.486;12.176;2022-11-23T05:46:23;96112.44;;;3.06;100.00
29045;BME280;16133;49.486;12.176;2022-11-23T05:48:48;96098.03;;;3.02;100.00
29045;BME280;16133;49.486;12.176;2022-11-23T05:51:14;96118.34;;;3.08;100.00
29045;BME280;16133;49.486;12.176;2022-11-23T05:53:39;96090.81;;;2.96;100.00
29045;BME280;16133;49.486;12.176;2022-11-23T05:56:05;96113.09;;;3.08;100.00
29045;BME280;16133;49.486;12.176;2022-11-23T05:58:30;96119.16;;;3.09;100.00
29045;BME280;16133;49.486;12.176;2022-11-23T06:00:57;96126.03;;;3.10;100.00
29045;BME280;16133;49.486;12.176;2022-11-23T06:03:23;96121.94;;;3.07;100.00
29045;BME280;16133;49.486;12.176;2022-11-23T06:05:48;96121.63;;;3.10;100.00
29045;BME280;16133;49.486;12.176;2022-11-23T06:08:13;96118.00;;;3.11;100.00
29045;BME280;16133;49.486;12.176;2022-11-23T06:10:39;96123.44;;;3.10;100.00
29045;BME280;16133;49.486;12.176;2022-11-23T06:13:04;96113.75;;;3.10;100.00
29045;BME280;16133;49.486;12.176;2022-11-23T06:15:30;96118.00;;;3.11;100.00
29045;BME280;16133;49.486;12.176;2022-11-23T06:17:59;96123.25;;;3.11;100.00
29045;BME280;16133;49.486;12.176;2022-11-23T06:20:26;96119.66;;;3.12;100.00
29045;BME280;16133;49.486;12.176;2022-11-23T06:22:52;96123.09;;;3.13;100.00
29045;BME280;16133;49.486;12.176;2022-11-23T06:25:18;96127.34;;;3.14;100.00
29045;BME280;16133;49.486;12.176;2022-11-23T06:27:57;96127.16;;;3.15;100.00
29045;BME280;16133;49.486;12.176;2022-11-23T06:30:23;96125.38;;;3.16;100.00
29045;BME280;16133;49.486;12.176;2022-11-23T06:32:49;96129.78;;;3.15;100.00
29045;BME280;16133;49.486;12.176;2022-11-23T06:35:14;96138.31;;;3.17;100.00
29045;BME280;16133;49.486;12.176;2022-11-23T06:37:40;96138.31;;;3.17;100.00
29045;BME280;16133;49.486;12.176;2022-11-23T06:40:06;96141.91;;;3.16;100.00
29045;BME280;16133;49.486;12.176;2022-11-23T06:42:32;96144.19;;;3.19;100.00
29045;BME280;16133;49.486;12.176;2022-11-23T06:44:57;96137.00;;;3.21;100.00
29045;BME280;16133;49.486;12.176;2022-11-23T06:47:23;96138.81;;;3.21;100.00
29045;BME280;16133;49.486;12.176;2022-11-23T06:49:48;96144.69;;;3.23;100.00
29045;BME280;16133;49.486;12.176;2022-11-23T06:52:14;96140.28;;;3.23;100.00
29045;BME280;16133;49.486;12.176;2022-11-23T06:54:39;96144.53;;;3.24;100.00
29045;BME280;16133;49.486;12.176;2022-11-23T06:57:08;96152.06;;;3.27;100.00
29045;BME280;16133;49.486;12.176;2022-11-23T06:59:33;96146.66;;;3.29;100.00
29045;BME280;16133;49.486;12.176;2022-11-23T07:01:59;96149.94;;;3.31;100.00
29045;BME280;16133;49.486;12.176;2022-11-23T07:04:24;96150.41;;;3.34;100.00
29045;BME280;16133;49.486;12.176;2022-11-23T07:06:49;96158.28;;;3.34;100.00
29045;BME280;16133;49.486;12.176;2022-11-23T07:09:15;96157.16;;;3.37;100.00
29045;BME280;16133;49.486;12.176;2022-11-23T07:11:40;96160.25;;;3.41;100.00
29045;BME280;16133;49.486;12.176;2022-11-23T07:14:06;96159.72;;;3.45;100.00
29045;BME280;16133;49.486;12.176;2022-11-23T07:16:31;96158.94;;;3.45;100.00
29045;BME280;16133;49.486;12.176;2022-11-23T07:18:56;96164.97;;;3.53;100.00
29045;BME280;16133;49.486;12.176;2022-11-23T07:21:22;96166.47;;;3.56;100.00
29045;BME280;16133;49.486;12.176;2022-11-23T07:23:47;96170.06;;;3.63;100.00
29045;BME280;16133;49.486;12.176;2022-11-23T07:26:13;96170.69;;;3.65;100.00
29045;BME280;16133;49.486;12.176;2022-11-23T07:28:38;96178.06;;;3.69;100.00
29045;BME280;16133;49.486;12.176;2022-11-23T07:31:03;96178.53;;;3.73;100.00
29045;BME280;16133;49.486;12.176;2022-11-23T07:33:29;96189.19;;;3.79;100.00
29045;BME280;16133;49.486;12.176;2022-11-23T07:35:54;96188.03;;;3.82;100.00
29045;BME280;16133;49.486;12.176;2022-11-23T07:38:20;96186.72;;;3.86;100.00
29045;BME280;16133;49.486;12.176;2022-11-23T07:40:48;96188.84;;;3.91;100.00
29045;BME280;16133;49.486;12.176;2022-11-23T07:43:16;96192.59;;;3.96;100.00
29045;BME280;16133;49.486;12.176;2022-11-23T07:45:41;96193.88;;;4.00;100.00
29045;BME280;16133;49.486;12.176;2022-11-23T07:48:07;96198.78;;;4.03;100.00
29045;BME280;16133;49.486;12.176;2022-11-23T07:50:34;96198.47;;;4.06;100.00
29045;BME280;16133;49.486;12.176;2022-11-23T07:53:04;96198.28;;;4.08;100.00
29045;BME280;16133;49.486;12.176;2022-11-23T07:55:30;96211.25;;;4.17;100.00
29045;BME280;16133;49.486;12.176;2022-11-23T07:57:57;96216.16;;;4.12;100.00
29045;BME280;16133;49.486;12.176;2022-11-23T08:00:23;96216.16;;;4.12;100.00
29045;BME280;16133;49.486;12.176;2022-11-23T08:02:49;96216.66;;;4.08;100.00
29045;BME280;16133;49.486;12.176;2022-11-23T08:05:15;96219.44;;;4.14;100.00
29045;BME280;16133;49.486;12.176;2022-11-23T08:07:41;96221.06;;;4.15;100.00
29045;BME280;16133;49.486;12.176;2022-11-23T08:10:06;96225.69;;;4.13;100.00
29045;BME280;16133;49.486;12.176;2022-11-23T08:12:32;96229.94;;;4.14;100.00
29045;BME280;16133;49.486;12.176;2022-11-23T08:14:57;96224.69;;;4.14;100.00
29045;BME280;16133;49.486;12.176;2022-11-23T08:17:22;96219.63;;;4.13;100.00
29045;BME280;16133;49.486;12.176;2022-11-23T08:19:48;96214.03;;;4.16;100.00
29045;BME280;16133;49.486;12.176;2022-11-23T08:22:13;96217.28;;;4.18;100.00
29045;BME280;16133;49.486;12.176;2022-11-23T08:24:39;96221.22;;;4.22;100.00
29045;BME280;16133;49.486;12.176;2022-11-23T08:27:04;96218.09;;;4.26;100.00
29045;BME280;16133;49.486;12.176;2022-11-23T08:29:29;96223.00;;;4.29;100.00
29045;BME280;16133;49.486;12.176;2022-11-23T08:31:55;96234.63;;;4.35;100.00
29045;BME280;16133;49.486;12.176;2022-11-23T08:34:20;96239.38;;;4.40;100.00
29045;BME280;16133;49.486;12.176;2022-11-23T08:36:46;96238.69;;;4.46;100.00
29045;BME280;16133;49.486;12.176;2022-11-23T08:39:12;96234.56;;;4.51;100.00
29045;BME280;16133;49.486;12.176;2022-11-23T08:41:39;96241.28;;;4.54;100.00
29045;BME280;16133;49.486;12.176;2022-11-23T08:44:05;96251.13;;;4.60;100.00
29045;BME280;16133;49.486;12.176;2022-11-23T08:46:32;96248.16;;;4.63;100.00
29045;BME280;16133;49.486;12.176;2022-11-23T08:48:57;96252.13;;;4.59;100.00
29045;BME280;16133;49.486;12.176;2022-11-23T08:51:23;96261.63;;;4.60;100.00
29045;BME280;16133;49.486;12.176;2022-11-23T08:53:49;96270.16;;;4.62;100.00
29045;BME280;16133;49.486;12.176;2022-11-23T08:56:15;96261.09;;;4.64;100.00
29045;BME280;16133;49.486;12.176;2022-11-23T08:58:40;96263.22;;;4.69;100.00
29045;BME280;16133;49.486;12.176;2022-11-23T09:01:11;96271.06;;;4.77;100.00
29045;BME280;16133;49.486;12.176;2022-11-23T09:03:37;96254.94;;;4.80;100.00
29045;BME280;16133;49.486;12.176;2022-11-23T09:06:03;96271.00;;;4.93;100.00
29045;BME280;16133;49.486;12.176;2022-11-23T09:08:28;96271.31;;;4.98;100.00
29045;BME280;16133;49.486;12.176;2022-11-23T09:11:01;96280.28;;;5.04;100.00
29045;BME280;16133;49.486;12.176;2022-11-23T09:13:27;96282.88;;;5.12;100.00
29045;BME280;16133;49.486;12.176;2022-11-23T09:16:00;96278.41;;;5.20;100.00
29045;BME280;16133;49.486;12.176;2022-11-23T09:18:26;96280.63;;;5.32;100.00
29045;BME280;16133;49.486;12.176;2022-11-23T09:20:52;96283.22;;;5.40;100.00
29045;BME280;16133;49.486;12.176;2022-11-23T09:23:18;96282.13;;;5.49;100.00
29045;BME280;16133;49.486;12.176;2022-11-23T09:25:43;96274.19;;;5.57;100.00
29045;BME280;16133;49.486;12.176;2022-11-23T09:28:12;96279.03;;;5.68;100.00
29045;BME280;16133;49.486;12.176;2022-11-23T09:30:39;96276.78;;;5.79;100.00
29045;BME280;16133;49.486;12.176;2022-11-23T09:33:05;96286.31;;;5.89;100.00
29045;BME280;16133;49.486;12.176;2022-11-23T09:35:30;96293.94;;;5.98;100.00
29045;BME280;16133;49.486;12.176;2022-11-23T09:37:56;96295.97;;;6.11;100.00
29045;BME280;16133;49.486;12.176;2022-11-23T09:40:23;96289.81;;;6.18;100.00
29045;BME280;16133;49.486;12.176;2022-11-23T09:48:13;96288.22;;;6.47;100.00
29045;BME280;16133;49.486;12.176;2022-11-23T09:50:49;96291.09;;;6.52;100.00
29045;BME280;16133;49.486;12.176;2022-11-23T09:53:25;96285.28;;;6.56;100.00
29045;BME280;16133;49.486;12.176;2022-11-23T09:55:55;96282.75;;;6.63;100.00
29045;BME280;16133;49.486;12.176;2022-11-23T09:58:22;96279.38;;;6.69;100.00
29045;BME280;16133;49.486;12.176;2022-11-23T10:01:04;96285.09;;;6.72;100.00
29045;BME280;16133;49.486;12.176;2022-11-23T10:03:35;96270.47;;;6.70;100.00
29045;BME280;16133;49.486;12.176;2022-11-23T10:17:07;96282.28;;;6.89;100.00
29045;BME280;16133;49.486;12.176;2022-11-23T10:22:45;96275.59;;;7.07;100.00
29045;BME280;16133;49.486;12.176;2022-11-23T10:25:17;96268.19;;;7.17;100.00
29045;BME280;16133;49.486;12.176;2022-11-23T10:27:45;96266.44;;;7.25;100.00
29045;BME280;16133;49.486;12.176;2022-11-23T10:30:13;96270.22;;;7.37;100.00
29045;BME280;16133;49.486;12.176;2022-11-23T10:35:29;96263.28;;;7.50;100.00
29045;BME280;16133;49.486;12.176;2022-11-23T10:38:16;96266.09;;;7.49;100.00
29045;BME280;16133;49.486;12.176;2022-11-23T10:40:52;96269.81;;;7.54;100.00
29045;BME280;16133;49.486;12.176;2022-11-23T10:43:24;96266.59;;;7.59;100.00
29045;BME280;16133;49.486;12.176;2022-11-23T10:46:22;96263.16;;;7.58;100.00
29045;BME280;16133;49.486;12.176;2022-11-23T10:48:49;96263.59;;;7.62;100.00
29045;BME280;16133;49.486;12.176;2022-11-23T10:53:52;96259.22;;;7.76;100.00
29045;BME280;16133;49.486;12.176;2022-11-23T10:56:20;96253.25;;;7.88;100.00
29045;BME280;16133;49.486;12.176;2022-11-23T10:58:45;96250.69;;;8.01;100.00
29045;BME280;16133;49.486;12.176;2022-11-23T11:01:18;96261.00;;;8.17;100.00
29045;BME280;16133;49.486;12.176;2022-11-23T11:03:44;96256.03;;;8.29;100.00
29045;BME280;16133;49.486;12.176;2022-11-23T11:06:10;96255.56;;;8.26;100.00
29045;BME280;16133;49.486;12.176;2022-11-23T11:08:48;96264.50;;;8.25;100.00
29045;BME280;16133;49.486;12.176;2022-11-23T11:13:47;96253.44;;;8.14;100.00
29045;BME280;16133;49.486;12.176;2022-11-23T11:16:34;96256.13;;;8.21;100.00
29045;BME280;16133;49.486;12.176;2022-11-23T11:21:51;96258.84;;;8.28;100.00
29045;BME280;16133;49.486;12.176;2022-11-23T11:24:19;96264.50;;;8.25;100.00
29045;BME280;16133;49.486;12.176;2022-11-23T11:26:51;96251.66;;;8.22;100.00
29045;BME280;16133;49.486;12.176;2022-11-23T11:29:45;96255.53;;;8.19;100.00
29045;BME280;16133;49.486;12.176;2022-11-23T11:32:28;96252.06;;;8.18;100.00
29045;BME280;16133;49.486;12.176;2022-11-23T11:35:02;96244.31;;;8.17;100.00
29045;BME280;16133;49.486;12.176;2022-11-23T11:37:39;96242.50;;;8.17;100.00
29045;BME280;16133;49.486;12.176;2022-11-23T11:42:42;96241.47;;;8.12;100.00
29045;BME280;16133;49.486;12.176;2022-11-23T11:45:15;96245.66;;;8.06;100.00
29045;BME280;16133;49.486;12.176;2022-11-23T11:47:49;96240.53;;;7.98;100.00
29045;BME280;16133;49.486;12.176;2022-11-23T11:50:29;96241.06;;;7.87;100.00
29045;BME280;16133;49.486;12.176;2022-11-23T11:53:05;96221.44;;;7.75;100.00
29045;BME280;16133;49.486;12.176;2022-11-23T11:58:10;96229.88;;;7.85;100.00
29045;BME280;16133;49.486;12.176;2022-11-23T12:00:38;96228.81;;;7.80;100.00
29045;BME280;16133;49.486;12.176;2022-11-23T12:06:16;96224.34;;;7.80;100.00
29045;BME280;16133;49.486;12.176;2022-11-23T12:11:10;96221.13;;;7.85;100.00
29045;BME280;16133;49.486;12.176;2022-11-23T12:13:40;96219.34;;;7.92;100.00
29045;BME280;16133;49.486;12.176;2022-11-23T12:32:44;96212.66;;;7.68;100.00
29045;BME280;16133;49.486;12.176;2022-11-23T12:35:51;96214.31;;;7.69;100.00
29045;BME280;16133;49.486;12.176;2022-11-23T12:41:13;96216.38;;;7.74;100.00
29045;BME280;16133;49.486;12.176;2022-11-23T12:52:26;96208.78;;;7.64;100.00
29045;BME280;16133;49.486;12.176;2022-11-23T13:00:32;96206.16;;;7.43;100.00
29045;BME280;16133;49.486;12.176;2022-11-23T13:06:19;96206.16;;;7.43;100.00
29045;BME280;16133;49.486;12.176;2022-11-23T13:22:32;96198.97;;;7.37;100.00
29045;BME280;16133;49.486;12.176;2022-11-23T13:33:23;96204.91;;;7.39;100.00
29045;BME280;16133;49.486;12.176;2022-11-23T13:35:52;96211.34;;;7.36;100.00
29045;BME280;16133;49.486;12.176;2022-11-23T13:38:23;96209.31;;;7.32;100.00
29045;BME280;16133;49.486;12.176;2022-11-23T13:40:49;96210.03;;;7.26;100.00
29045;BME280;16133;49.486;12.176;2022-11-23T13:43:24;96205.59;;;7.26;100.00
29045;BME280;16133;49.486;12.176;2022-11-23T13:46:25;96205.16;;;7.22;100.00
29045;BME280;16133;49.486;12.176;2022-11-23T13:48:55;96211.97;;;7.17;100.00
29045;BME280;16133;49.486;12.176;2022-11-23T13:51:32;96210.28;;;7.09;100.00
29045;BME280;16133;49.486;12.176;2022-11-23T13:54:18;96206.59;;;7.04;100.00
29045;BME280;16133;49.486;12.176;2022-11-23T13:56:45;96213.41;;;6.98;100.00
29045;BME280;16133;49.486;12.176;2022-11-23T14:04:33;96199.44;;;6.83;100.00
29045;BME280;16133;49.486;12.176;2022-11-23T14:07:24;96208.13;;;6.77;100.00
29045;BME280;16133;49.486;12.176;2022-11-23T14:09:54;96206.41;;;6.69;100.00
29045;BME280;16133;49.486;12.176;2022-11-23T14:20:19;96198.88;;;6.37;100.00
29045;BME280;16133;49.486;12.176;2022-11-23T14:28:52;96192.63;;;6.23;100.00
29045;BME280;16133;49.486;12.176;2022-11-23T14:36:51;96198.28;;;6.20;100.00
29045;BME280;16133;49.486;12.176;2022-11-23T14:41:59;96199.00;;;6.14;100.00
29045;BME280;16133;49.486;12.176;2022-11-23T14:44:27;96199.91;;;6.07;100.00
29045;BME280;16133;49.486;12.176;2022-11-23T14:47:08;96205.91;;;6.01;100.00
29045;BME280;16133;49.486;12.176;2022-11-23T14:49:33;96211.25;;;5.93;100.00
29045;BME280;16133;49.486;12.176;2022-11-23T14:52:00;96206.84;;;5.85;100.00
29045;BME280;16133;49.486;12.176;2022-11-23T14:54:27;96206.56;;;5.80;100.00
29045;BME280;16133;49.486;12.176;2022-11-23T14:56:57;96204.66;;;5.74;100.00
29045;BME280;16133;49.486;12.176;2022-11-23T14:59:38;96205.09;;;5.63;100.00
29045;BME280;16133;49.486;12.176;2022-11-23T15:02:14;96194.34;;;5.50;100.00
29045;BME280;16133;49.486;12.176;2022-11-23T15:05:02;96200.25;;;5.29;100.00
29045;BME280;16133;49.486;12.176;2022-11-23T15:07:41;96196.84;;;5.06;100.00
29045;BME280;16133;49.486;12.176;2022-11-23T15:12:44;96190.03;;;4.58;100.00
29045;BME280;16133;49.486;12.176;2022-11-23T15:15:22;96189.63;;;4.46;100.00